Time;durP1;ratioP1;P1;durP2;ratioP2;P2;SDS_P1;SDS_P2;PMS_P1;PMS_P2;Temp;Humidity;BMP_temperature;BMP_pressure;BME280_temperature;BME280_humidity;BME280_pressure;Samples;Min_cycle;Max_cycle;Signal;HPM_P1;HPM_P2
2021/09/19 00:00:16;;;;;;;15.43;8.15;;;;;;;16.90;100.00;100148.52;1700783;82;21083;-87
2021/09/19 00:02:45;;;;;;;20.85;9.60;;;;;;;16.87;100.00;100149.64;1700828;83;21501;-84
2021/09/19 00:05:14;;;;;;;11.53;9.03;;;;;;;16.85;100.00;100152.96;1701047;83;21105;-82
2021/09/19 00:07:41;;;;;;;15.80;9.58;;;;;;;16.84;100.00;100144.74;1700927;82;21018;-84
2021/09/19 00:10:11;;;;;;;12.65;9.03;;;;;;;16.81;100.00;100143.75;1700927;83;21124;-84
2021/09/19 00:12:39;;;;;;;12.33;8.10;;;;;;;16.81;100.00;100145.91;1700799;83;21109;-85
2021/09/19 00:15:10;;;;;;;18.57;8.93;;;;;;;16.79;100.00;100147.03;1700747;83;21541;-84
2021/09/19 00:17:38;;;;;;;9.25;8.00;;;;;;;16.74;100.00;100144.94;1711066;82;21133;-83
2021/09/19 00:20:08;;;;;;;11.38;8.38;;;;;;;16.75;100.00;100147.06;1711168;82;21110;-86
2021/09/19 00:22:37;;;;;;;13.90;10.80;;;;;;;16.77;100.00;100138.52;1711305;83;21070;-86
2021/09/19 00:25:08;;;;;;;13.13;10.60;;;;;;;16.91;100.00;100150.13;1683055;84;21004;-84
2021/09/19 00:27:35;;;;;;;11.88;9.70;;;;;;;17.02;100.00;100166.41;1706926;83;21004;-87
2021/09/19 00:30:07;;;;;;;10.72;9.53;;;;;;;17.06;100.00;100170.86;1706670;84;21034;-87
2021/09/19 00:32:35;;;;;;;10.38;9.25;;;;;;;17.05;100.00;100172.33;1725642;82;21054;-86
2021/09/19 00:35:06;;;;;;;11.97;9.55;;;;;;;17.05;100.00;100173.16;1711096;82;21011;-85
2021/09/19 00:37:33;;;;;;;14.10;10.03;;;;;;;17.09;100.00;100157.86;1701231;82;21895;-87
2021/09/19 00:40:00;;;;;;;17.23;10.65;;;;;;;17.07;100.00;100161.15;1682892;84;20983;-87
2021/09/19 00:42:27;;;;;;;14.73;9.68;;;;;;;17.04;100.00;100154.42;1692722;84;21044;-88
2021/09/19 00:45:00;;;;;;;40.25;10.93;;;;;;;17.07;100.00;100159.83;1655501;85;21080;-87
2021/09/19 00:47:27;;;;;;;24.67;10.53;;;;;;;17.11;100.00;100164.59;1656268;85;21099;-84
2021/09/19 00:49:56;;;;;;;14.50;9.68;;;;;;;17.23;100.00;100169.47;1677260;85;21559;-86
2021/09/19 00:52:23;;;;;;;13.95;9.15;;;;;;;17.29;100.00;100165.67;1656058;85;21441;-86
2021/09/19 00:54:50;;;;;;;14.90;9.88;;;;;;;17.32;100.00;100169.29;1677300;85;21072;-82
2021/09/19 00:57:19;;;;;;;10.23;8.90;;;;;;;17.38;100.00;100169.59;1655472;85;21080;-84
2021/09/19 00:59:49;;;;;;;10.05;8.85;;;;;;;17.43;100.00;100166.77;1677357;85;20965;-85
2021/09/19 01:02:17;;;;;;;11.43;9.38;;;;;;;17.44;100.00;100164.95;1655800;85;21763;-85
2021/09/19 01:04:47;;;;;;;10.80;9.60;;;;;;;17.47;100.00;100159.35;1655283;85;21069;-83
2021/09/19 01:07:15;;;;;;;11.30;9.55;;;;;;;17.48;100.00;100163.63;1655509;85;21032;-81
2021/09/19 01:09:43;;;;;;;12.00;9.18;;;;;;;17.44;100.00;100168.89;1677067;85;21072;-85
2021/09/19 01:12:12;;;;;;;11.35;9.53;;;;;;;17.39;100.00;100169.41;1677167;85;21009;-86
2021/09/19 01:14:41;;;;;;;11.33;9.23;;;;;;;17.28;100.00;100161.39;1677221;85;21867;-84
2021/09/19 01:17:10;;;;;;;10.72;9.10;;;;;;;17.21;100.00;100163.06;1677140;85;21096;-84
2021/09/19 01:19:37;;;;;;;11.83;9.20;;;;;;;17.10;100.00;100164.77;1655519;85;21123;-85
2021/09/19 01:22:05;;;;;;;10.18;8.78;;;;;;;17.01;100.00;100164.79;1677206;85;21076;-84
2021/09/19 01:24:33;;;;;;;10.13;9.03;;;;;;;16.93;100.00;100161.34;1655344;85;21048;-84
2021/09/19 01:27:01;;;;;;;16.25;9.28;;;;;;;16.86;100.00;100151.98;1655327;85;21067;-83
2021/09/19 01:29:29;;;;;;;11.28;9.63;;;;;;;16.78;100.00;100148.86;1655649;85;21048;-84
2021/09/19 01:31:57;;;;;;;12.15;9.20;;;;;;;16.75;100.00;100149.69;1655831;85;20981;-86
2021/09/19 01:34:25;;;;;;;10.48;9.13;;;;;;;16.68;100.00;100146.42;1655578;85;21084;-84
2021/09/19 01:36:54;;;;;;;10.32;9.18;;;;;;;16.62;100.00;100139.68;1677431;85;21531;-86
2021/09/19 01:39:21;;;;;;;13.03;10.30;;;;;;;16.58;100.00;100127.37;1655846;85;22246;-84
2021/09/19 01:41:51;;;;;;;11.93;9.53;;;;;;;16.56;100.00;100124.92;1677155;85;21571;-84
2021/09/19 01:44:18;;;;;;;11.40;10.20;;;;;;;16.51;100.00;100115.88;1655548;85;21609;-85
2021/09/19 01:46:46;;;;;;;16.85;11.00;;;;;;;16.44;100.00;100110.97;1655166;85;21535;-85
2021/09/19 01:49:12;;;;;;;12.37;11.12;;;;;;;16.37;100.00;100111.64;1655862;85;21549;-84
2021/09/19 01:51:41;;;;;;;12.05;10.85;;;;;;;16.33;100.00;100105.06;1677298;85;22631;-86
2021/09/19 01:54:08;;;;;;;13.50;10.98;;;;;;;16.26;100.00;100105.39;1677499;85;21122;-84
2021/09/19 01:56:35;;;;;;;12.00;10.90;;;;;;;16.24;100.00;100103.42;1655510;85;21177;-85
2021/09/19 01:59:03;;;;;;;12.28;10.20;;;;;;;16.22;100.00;100106.22;1677237;85;21075;-84
2021/09/19 02:01:31;;;;;;;11.50;10.23;;;;;;;16.22;100.00;100105.41;1677372;85;21075;-81
2021/09/19 02:04:00;;;;;;;10.95;9.85;;;;;;;16.20;100.00;100102.12;1677224;85;20952;-81
2021/09/19 02:06:27;;;;;;;11.33;9.60;;;;;;;16.20;100.00;100093.73;1655669;85;20996;-85
2021/09/19 02:08:55;;;;;;;14.85;9.58;;;;;;;16.22;100.00;100102.78;1677298;85;21558;-83
2021/09/19 02:11:23;;;;;;;11.12;9.95;;;;;;;16.23;100.00;100103.92;1677296;85;21047;-84
2021/09/19 02:13:52;;;;;;;12.73;9.60;;;;;;;16.25;100.00;100102.44;1677374;85;21035;-82
2021/09/19 02:16:22;;;;;;;12.55;9.73;;;;;;;16.26;100.00;100105.39;1677323;85;21872;-84
2021/09/19 02:18:51;;;;;;;14.47;10.88;;;;;;;16.26;100.00;100108.02;1677090;85;21008;-82
2021/09/19 02:21:18;;;;;;;11.48;10.03;;;;;;;16.28;100.00;100109.16;1655660;85;21601;-84
2021/09/19 02:23:47;;;;;;;11.75;10.50;;;;;;;16.29;100.00;100106.39;1677374;85;20968;-84
2021/09/19 02:26:15;;;;;;;12.37;9.45;;;;;;;16.30;100.00;100104.09;1655176;85;21084;-83
2021/09/19 02:28:43;;;;;;;13.58;10.03;;;;;;;16.32;100.00;100106.55;1676783;85;21079;-82
2021/09/19 02:31:10;;;;;;;12.03;9.80;;;;;;;16.33;100.00;100114.25;1655842;85;21003;-84
2021/09/19 02:33:39;;;;;;;12.98;10.35;;;;;;;16.35;100.00;100110.14;1677206;85;21090;-83
2021/09/19 02:36:06;;;;;;;13.20;10.28;;;;;;;16.37;100.00;100105.07;1655931;85;21090;-84
2021/09/19 02:38:33;;;;;;;12.50;9.83;;;;;;;16.42;100.00;100101.11;1677461;85;21066;-82
2021/09/19 02:41:02;;;;;;;11.10;9.90;;;;;;;16.44;100.00;100109.66;1677204;85;21149;-83
2021/09/19 02:43:29;;;;;;;10.95;9.60;;;;;;;16.47;100.00;100110.14;1676799;85;21130;-82
2021/09/19 02:45:56;;;;;;;10.78;9.63;;;;;;;16.50;100.00;100107.20;1677508;85;21043;-81
2021/09/19 02:48:25;;;;;;;11.28;9.58;;;;;;;16.50;100.00;100108.51;1677287;85;21620;-81
2021/09/19 02:50:52;;;;;;;13.08;10.43;;;;;;;16.53;100.00;100110.78;1680639;84;21635;-85
2021/09/19 02:53:19;;;;;;;18.92;11.10;;;;;;;16.56;100.00;100108.31;1660633;85;21088;-83
2021/09/19 02:55:45;;;;;;;14.63;11.20;;;;;;;16.57;100.00;100106.02;1651553;85;21022;-81
2021/09/19 02:58:12;;;;;;;15.50;10.82;;;;;;;16.61;100.00;100104.70;1672843;84;21522;-83
2021/09/19 03:00:41;;;;;;;21.05;10.75;;;;;;;16.62;100.00;100105.52;1673041;84;21557;-86
2021/09/19 03:03:08;;;;;;;18.77;11.08;;;;;;;16.62;100.00;100112.92;1667471;84;21085;-82
2021/09/19 03:05:37;;;;;;;13.15;10.70;;;;;;;16.63;100.00;100107.97;1681404;84;21405;-81
2021/09/19 03:08:04;;;;;;;25.57;11.25;;;;;;;16.65;100.00;100104.69;1672740;84;21494;-82
2021/09/19 03:10:31;;;;;;;14.58;11.63;;;;;;;16.64;100.00;100100.41;1707092;83;21715;-83
2021/09/19 03:12:58;;;;;;;16.50;10.82;;;;;;;16.66;100.00;100101.58;1715843;81;21078;-81
2021/09/19 03:15:26;;;;;;;15.45;12.68;;;;;;;16.67;100.00;100096.14;1703338;83;21043;-83
2021/09/19 03:17:52;;;;;;;19.52;12.25;;;;;;;16.72;100.00;100097.77;1714613;81;21084;-82
2021/09/19 03:20:21;;;;;;;18.50;12.58;;;;;;;16.72;100.00;100091.70;1735343;81;21101;-86
2021/09/19 03:22:48;;;;;;;18.05;13.88;;;;;;;16.75;100.00;100095.28;1726724;81;21463;-78
2021/09/19 03:25:17;;;;;;;16.65;13.43;;;;;;;16.77;100.00;100090.69;1731882;81;21490;-84
2021/09/19 03:27:45;;;;;;;17.37;13.68;;;;;;;16.76;100.00;100089.05;1708152;82;21078;-81
2021/09/19 03:30:15;;;;;;;24.98;14.73;;;;;;;16.74;100.00;100083.16;1719554;81;21058;-81
2021/09/19 03:32:46;;;;;;;16.27;13.03;;;;;;;16.72;100.00;100085.13;1737659;81;21734;-82
2021/09/19 03:35:13;;;;;;;14.65;12.95;;;;;;;16.75;100.00;100082.65;1709791;82;21490;-81
2021/09/19 03:37:40;;;;;;;14.70;12.88;;;;;;;16.76;100.00;100088.23;1700679;82;21088;-79
2021/09/19 03:40:10;;;;;;;16.70;11.85;;;;;;;16.72;100.00;100087.25;1700115;82;22015;-82
2021/09/19 03:42:39;;;;;;;16.67;12.65;;;;;;;16.71;100.00;100083.48;1688723;83;21798;-82
2021/09/19 03:45:08;;;;;;;15.32;12.85;;;;;;;16.72;100.00;100085.13;1688576;83;21064;-82
2021/09/19 03:47:35;;;;;;;14.15;12.33;;;;;;;16.71;100.00;100086.92;1700715;82;21032;-84
2021/09/19 03:50:06;;;;;;;15.63;12.80;;;;;;;16.72;100.00;100090.38;1700398;82;21052;-84
2021/09/19 03:52:34;;;;;;;13.58;12.18;;;;;;;16.73;100.00;100097.28;1701444;84;21125;-84
2021/09/19 03:55:03;;;;;;;13.38;11.80;;;;;;;16.73;100.00;100099.91;1706255;82;21784;-79
2021/09/19 03:57:31;;;;;;;15.65;12.63;;;;;;;16.75;100.00;100099.73;1711842;82;21054;-82
2021/09/19 03:59:59;;;;;;;16.87;12.53;;;;;;;16.75;100.00;100097.11;1732797;82;21121;-84
2021/09/19 04:02:28;;;;;;;16.20;12.60;;;;;;;16.76;100.00;100089.05;1711709;82;21007;-80
2021/09/19 04:04:55;;;;;;;16.65;12.15;;;;;;;16.77;100.00;100090.69;1732599;82;21466;-83
2021/09/19 04:07:22;;;;;;;15.18;12.53;;;;;;;16.77;100.00;100085.43;1711947;82;22373;-81
2021/09/19 04:09:49;;;;;;;15.05;13.10;;;;;;;16.80;100.00;100088.21;1723394;82;20943;-81
2021/09/19 04:12:16;;;;;;;15.00;12.80;;;;;;;16.80;100.00;100085.58;1736502;81;20951;-87
2021/09/19 04:14:45;;;;;;;15.72;13.10;;;;;;;16.81;100.00;100090.69;1761727;81;20963;-83
2021/09/19 04:17:14;;;;;;;14.58;12.13;;;;;;;16.86;100.00;100094.13;1762335;80;21051;-84
2021/09/19 04:19:41;;;;;;;14.05;12.55;;;;;;;16.88;100.00;100094.28;1736176;81;21055;-80
2021/09/19 04:22:09;;;;;;;16.40;12.75;;;;;;;16.93;100.00;100096.44;1757920;81;21027;-81
2021/09/19 04:24:38;;;;;;;14.10;12.50;;;;;;;16.96;100.00;100090.81;1758943;81;21545;-85
2021/09/19 04:27:06;;;;;;;16.97;13.10;;;;;;;17.00;100.00;100097.39;1742479;81;21616;-81
2021/09/19 04:29:34;;;;;;;16.50;13.58;;;;;;;17.06;100.00;100104.27;1761923;81;21054;-81
2021/09/19 04:32:03;;;;;;;15.00;13.55;;;;;;;17.08;100.00;100097.84;1760059;80;21065;-80
2021/09/19 04:34:30;;;;;;;15.43;13.08;;;;;;;17.11;100.00;100105.41;1708788;82;22272;-80
2021/09/19 04:36:57;;;;;;;15.75;14.23;;;;;;;17.11;100.00;100104.56;1740405;81;21558;-83
2021/09/19 04:39:24;;;;;;;19.75;14.60;;;;;;;17.13;100.00;100111.80;1743159;80;21034;-80
2021/09/19 04:41:53;;;;;;;17.05;15.23;;;;;;;17.16;100.00;100107.52;1764690;80;21023;-84
2021/09/19 04:44:20;;;;;;;15.88;14.05;;;;;;;17.15;100.00;100104.05;1742916;81;21114;-82
2021/09/19 04:46:47;;;;;;;16.40;14.63;;;;;;;17.16;100.00;100107.52;1764085;81;21062;-81
2021/09/19 04:49:14;;;;;;;16.80;15.10;;;;;;;17.16;100.00;100103.58;1743354;81;21054;-79
2021/09/19 04:51:41;;;;;;;17.35;15.63;;;;;;;17.16;100.00;100092.55;1743034;81;21180;-81
2021/09/19 04:54:09;;;;;;;17.23;15.45;;;;;;;17.17;100.00;100081.55;1742623;81;21044;-84
2021/09/19 04:56:36;;;;;;;18.30;16.37;;;;;;;17.17;100.00;100081.55;1746992;81;20995;-82
2021/09/19 04:59:04;;;;;;;20.17;15.75;;;;;;;17.19;100.00;100080.38;1769761;80;21510;-82
2021/09/19 05:01:31;;;;;;;17.65;15.85;;;;;;;17.20;100.00;100078.55;1741376;81;20987;-84
2021/09/19 05:03:59;;;;;;;17.10;15.45;;;;;;;17.24;100.00;100080.34;1737299;81;21067;-83
2021/09/19 05:06:26;;;;;;;19.12;17.12;;;;;;;17.27;100.00;100083.95;1758215;81;21640;-80
2021/09/19 05:08:54;;;;;;;18.95;16.52;;;;;;;17.31;100.00;100084.76;1762004;80;21866;-81
2021/09/19 05:11:21;;;;;;;19.35;17.07;;;;;;;17.36;100.00;100081.61;1771426;80;21015;-80
2021/09/19 05:13:48;;;;;;;19.90;17.75;;;;;;;17.41;100.00;100087.67;1748384;81;21081;-81
2021/09/19 05:16:15;;;;;;;19.82;17.77;;;;;;;17.46;100.00;100095.86;1769843;81;20967;-80
2021/09/19 05:18:42;;;;;;;21.20;17.60;;;;;;;17.51;100.00;100086.94;1769985;81;21256;-82
2021/09/19 05:21:11;;;;;;;19.30;17.02;;;;;;;17.54;100.00;100097.13;1769679;80;21022;-84
2021/09/19 05:23:38;;;;;;;19.40;17.50;;;;;;;17.59;100.00;100105.83;1747545;81;21512;-82
2021/09/19 05:26:05;;;;;;;22.27;17.50;;;;;;;17.59;100.00;100100.05;1684800;83;21077;-85
2021/09/19 05:28:32;;;;;;;20.23;16.67;;;;;;;17.61;100.00;100090.17;1660310;85;21045;-79
2021/09/19 05:30:59;;;;;;;19.02;16.60;;;;;;;17.62;100.00;100089.18;1660727;85;21157;-85
2021/09/19 05:33:26;;;;;;;19.07;17.05;;;;;;;17.63;100.00;100086.88;1728327;82;21157;-83
2021/09/19 05:35:53;;;;;;;19.48;16.42;;;;;;;17.65;100.00;100086.22;1739213;81;21075;-81
2021/09/19 05:38:20;;;;;;;18.32;16.40;;;;;;;17.66;100.00;100089.17;1716522;82;21535;-84
2021/09/19 05:40:47;;;;;;;18.32;16.50;;;;;;;17.69;100.00;100093.74;1738001;81;20981;-82
2021/09/19 05:43:15;;;;;;;22.07;17.77;;;;;;;17.72;100.00;100091.58;1736177;81;21048;-81
2021/09/19 05:45:42;;;;;;;18.92;16.93;;;;;;;17.77;100.00;100086.62;1748086;81;21086;-86
2021/09/19 05:48:10;;;;;;;20.30;18.17;;;;;;;17.81;100.00;100087.09;1769907;80;21091;-82
2021/09/19 05:50:38;;;;;;;21.35;17.48;;;;;;;17.87;100.00;100086.86;1769774;80;21091;-84
2021/09/19 05:53:06;;;;;;;23.57;20.72;;;;;;;17.91;100.00;100081.07;1747761;81;21009;-80
2021/09/19 05:55:34;;;;;;;22.50;20.15;;;;;;;17.95;100.00;100091.63;1763455;80;21062;-82
2021/09/19 05:58:01;;;;;;;23.35;20.95;;;;;;;17.99;100.00;100095.23;1749991;80;22057;-81
2021/09/19 06:00:28;;;;;;;25.32;22.60;;;;;;;18.00;100.00;100098.16;1750176;80;21114;-79
2021/09/19 06:02:57;;;;;;;25.17;22.27;;;;;;;18.01;100.00;100094.53;1780573;80;21078;-84
2021/09/19 06:05:24;;;;;;;26.70;24.00;;;;;;;18.03;100.00;100101.77;1750522;80;21044;-81
2021/09/19 06:07:52;;;;;;;26.02;23.25;;;;;;;18.04;100.00;100104.73;1780356;80;21150;-82
2021/09/19 06:10:21;;;;;;;26.02;23.25;;;;;;;18.04;100.00;100105.53;1780497;80;21047;-84
2021/09/19 06:12:50;;;;;;;27.75;24.25;;;;;;;18.03;100.00;100105.72;1767501;80;21104;-84
2021/09/19 06:15:19;;;;;;;26.20;23.52;;;;;;;18.01;100.00;100109.02;1752174;80;21028;-82
2021/09/19 06:17:47;;;;;;;28.75;25.77;;;;;;;18.01;100.00;100107.22;1752079;81;21001;-82
2021/09/19 06:20:14;;;;;;;27.67;24.87;;;;;;;18.00;100.00;100111.33;1755814;80;21140;-80
2021/09/19 06:22:43;;;;;;;26.57;23.98;;;;;;;18.00;100.00;100104.74;1752225;80;21009;-79
2021/09/19 06:25:11;;;;;;;25.88;23.42;;;;;;;18.01;100.00;100107.70;1736661;80;21061;-79
2021/09/19 06:27:39;;;;;;;26.20;23.62;;;;;;;18.01;100.00;100096.69;1749129;80;21049;-82
2021/09/19 06:30:10;;;;;;;24.82;22.17;;;;;;;18.02;100.00;100094.37;1752218;80;20997;-80
2021/09/19 06:32:38;;;;;;;23.35;21.17;;;;;;;18.05;100.00;100101.10;1721259;80;21527;-84
2021/09/19 06:35:07;;;;;;;23.92;21.60;;;;;;;18.06;100.00;100106.19;1734542;80;21142;-84
2021/09/19 06:37:34;;;;;;;23.60;21.20;;;;;;;18.08;100.00;100108.63;1733922;80;21057;-81
2021/09/19 06:40:02;;;;;;;23.45;21.02;;;;;;;18.10;100.00;100098.74;1749397;80;21449;-79
2021/09/19 06:42:31;;;;;;;23.87;21.42;;;;;;;18.11;100.00;100093.28;1731703;81;21046;-80
2021/09/19 06:44:58;;;;;;;28.15;25.17;;;;;;;18.13;100.00;100097.08;1705546;82;21093;-81
2021/09/19 06:47:25;;;;;;;36.17;29.98;;;;;;;18.14;100.00;100102.68;1741616;80;21081;-84
2021/09/19 06:49:54;;;;;;;38.67;32.38;;;;;;;18.14;100.00;100105.31;1736876;80;21530;-81
2021/09/19 06:52:21;;;;;;;37.00;33.02;;;;;;;18.17;100.00;100111.52;1752743;80;21503;-83
2021/09/19 06:58:32;;;;;;;42.48;36.73;;;;;;;18.23;100.00;100117.39;1682237;83;21020;-80
2021/09/19 07:00:59;;;;;;;44.55;37.67;;;;;;;18.24;100.00;100123.50;1687816;80;21805;-79
2021/09/19 07:03:27;;;;;;;40.83;36.42;;;;;;;18.24;100.00;100119.55;1721392;81;21099;-83
2021/09/19 07:05:54;;;;;;;41.58;37.08;;;;;;;18.26;100.00;100118.37;1709398;80;21037;-80
2021/09/19 07:08:20;;;;;;;42.03;35.65;;;;;;;18.28;100.00;100121.66;1749772;80;21104;-84
2021/09/19 07:10:49;;;;;;;44.23;36.88;;;;;;;18.29;100.00;100123.78;1780333;80;21662;-79
2021/09/19 07:13:16;;;;;;;43.58;37.45;;;;;;;18.33;100.00;100125.08;1749889;80;21123;-80
2021/09/19 07:15:46;;;;;;;48.73;38.83;;;;;;;18.39;100.00;100124.84;1750846;80;21972;-80
2021/09/19 07:18:13;;;;;;;45.95;37.85;;;;;;;18.44;100.00;100129.09;1749707;80;21108;-80
2021/09/19 07:20:40;;;;;;;44.85;37.15;;;;;;;18.45;100.00;100126.27;1750128;80;21061;-81
2021/09/19 07:23:07;;;;;;;47.60;38.13;;;;;;;18.45;100.00;100122.83;1743119;81;21825;-83
2021/09/19 07:25:34;;;;;;;44.50;36.65;;;;;;;18.47;100.00;100126.08;1773780;80;21164;-82
2021/09/19 07:28:06;;;;;;;46.33;37.93;;;;;;;18.49;100.00;100133.32;1742092;81;21070;-84
2021/09/19 07:30:34;;;;;;;;;;;;;;;18.51;100.00;100135.28;1766928;80;21003;-81
2021/09/19 07:33:02;;;;;;;46.30;37.08;;;;;;;18.52;100.00;100138.25;1738887;81;20168;-80
2021/09/19 07:35:29;;;;;;;49.95;38.30;;;;;;;18.51;100.00;100137.11;1764391;80;21011;-85
2021/09/19 07:37:58;;;;;;;47.88;38.90;;;;;;;18.47;100.00;100137.94;1769255;81;21141;-84
2021/09/19 07:40:25;;;;;;;47.58;38.50;;;;;;;18.47;100.00;100140.58;1764255;80;21011;-81
2021/09/19 07:42:52;;;;;;;52.25;40.67;;;;;;;18.50;100.00;100132.33;1764344;80;21026;-80
2021/09/19 07:45:20;;;;;;;49.93;41.25;;;;;;;18.54;100.00;100145.48;1764050;80;21113;-82
2021/09/19 07:47:48;;;;;;;47.45;38.75;;;;;;;18.62;100.00;100145.08;1774661;80;21552;-82
2021/09/19 07:50:16;;;;;;;59.95;46.05;;;;;;;18.67;100.00;100143.52;1780732;80;22061;-81
2021/09/19 07:52:44;;;;;;;72.25;55.03;;;;;;;18.72;100.00;100146.94;1750025;80;21042;-81
2021/09/19 07:55:20;;;;;;;79.35;57.95;;;;;;;18.72;100.00;100146.94;1750275;80;21006;-81
2021/09/19 07:57:40;;;;;;;81.57;60.30;;;;;;;18.66;100.00;100141.91;1745909;80;21104;-84
2021/09/19 08:00:08;;;;;;;80.70;60.75;;;;;;;18.58;100.00;100134.88;1750080;80;21029;-82
2021/09/19 08:02:38;;;;;;;84.55;59.93;;;;;;;18.53;100.00;100141.69;1776110;80;21961;-80
2021/09/19 08:05:06;;;;;;;76.37;58.52;;;;;;;18.44;100.00;100140.44;1750362;80;21423;-81
2021/09/19 08:07:35;;;;;;;82.55;61.08;;;;;;;18.42;100.00;100142.45;1751017;80;21100;-81
2021/09/19 08:10:03;;;;;;;81.80;62.38;;;;;;;18.40;100.00;100142.30;1780826;80;21465;-81
2021/09/19 08:12:30;;;;;;;72.82;58.83;;;;;;;18.35;100.00;100142.83;1738849;82;21044;-80
2021/09/19 08:14:58;;;;;;;84.17;59.30;;;;;;;18.29;100.00;100143.06;1711127;82;21319;-86
2021/09/19 08:17:25;;;;;;;74.50;56.92;;;;;;;18.26;100.00;100152.63;1667058;84;21057;-82
2021/09/19 08:19:52;;;;;;;63.55;51.37;;;;;;;18.23;100.00;100152.97;1696078;83;21531;-80
2021/09/19 08:22:19;;;;;;;60.03;45.78;;;;;;;18.20;100.00;100162.56;1652677;83;21097;-81
2021/09/19 08:24:46;;;;;;;47.70;37.35;;;;;;;18.15;100.00;100166.20;1703272;83;21094;-84
2021/09/19 08:27:13;;;;;;;38.63;30.68;;;;;;;18.10;100.00;100169.88;1699932;83;21714;-82
2021/09/19 08:29:40;;;;;;;34.95;30.15;;;;;;;18.07;100.00;100175.48;1696702;83;21446;-84
2021/09/19 08:32:09;;;;;;;38.45;29.55;;;;;;;18.05;100.00;100171.72;1703224;84;21003;-82
2021/09/19 08:34:41;;;;;;;35.98;29.32;;;;;;;18.06;100.00;100167.28;1697180;83;21023;-82
2021/09/19 08:37:08;;;;;;;82.57;64.20;;;;;;;18.08;100.00;100158.20;1683532;85;21580;-80
2021/09/19 08:39:35;;;;;;;95.42;65.72;;;;;;;18.13;100.00;100163.75;1683049;85;21260;-82
2021/09/19 08:42:03;;;;;;;64.97;46.20;;;;;;;18.19;100.00;100160.08;1683210;84;21081;-81
2021/09/19 08:44:30;;;;;;;58.92;44.10;;;;;;;18.24;100.00;100155.92;1696749;83;21627;-85
2021/09/19 08:46:58;;;;;;;49.48;39.30;;;;;;;18.32;100.00;100156.86;1683927;83;20979;-81
2021/09/19 08:49:25;;;;;;;47.55;35.35;;;;;;;18.39;100.00;100162.57;1711633;82;21082;-80
2021/09/19 08:51:52;;;;;;;77.32;56.18;;;;;;;18.42;100.00;100152.16;1711738;83;21213;-82
2021/09/19 08:54:19;;;;;;;69.65;57.17;;;;;;;18.46;100.00;100152.14;1698351;83;21545;-84
2021/09/19 08:56:47;;;;;;;137.00;119.72;;;;;;;18.52;100.00;100157.17;1687510;83;21058;-82
2021/09/19 08:59:14;;;;;;;65.40;58.20;;;;;;;18.56;100.00;100155.33;1711942;83;21051;-82
2021/09/19 09:02:03;;;;;;;65.10;57.48;;;;;;;18.59;100.00;100147.07;1688345;84;21164;-81
2021/09/19 09:04:30;;;;;;;73.10;65.25;;;;;;;18.64;100.00;100149.17;1642086;86;21482;-81
2021/09/19 09:06:57;;;;;;;57.98;51.90;;;;;;;18.70;100.00;100147.64;1609682;88;21088;-82
2021/09/19 09:09:26;;;;;;;57.13;50.43;;;;;;;18.78;100.00;100148.05;1679635;84;21007;-83
2021/09/19 09:12:08;;;;;;;63.75;55.65;;;;;;;18.90;100.00;100151.38;1708488;84;21581;-82
2021/09/19 09:14:53;;;;;;;56.95;49.55;;;;;;;19.02;100.00;100158.87;1686296;83;21023;-80
2021/09/19 09:17:26;;;;;;;57.50;47.13;;;;;;;19.12;100.00;100154.64;1676078;85;21094;-82
2021/09/19 09:19:58;;;;;;;78.45;57.35;;;;;;;19.26;100.00;100156.95;1657083;84;20972;-84
2021/09/19 09:22:33;;;;;;;59.67;50.88;;;;;;;19.45;100.00;100155.05;1692792;83;21838;-82
2021/09/19 09:25:17;;;;;;;61.73;50.38;;;;;;;19.62;100.00;100147.73;1680091;84;21562;-83
2021/09/19 09:27:48;;;;;;;51.65;45.40;;;;;;;19.78;100.00;100151.95;1694616;83;21124;-84
2021/09/19 09:30:25;;;;;;;50.67;44.10;;;;;;;19.93;100.00;100151.11;1697138;84;20995;-84
2021/09/19 09:33:01;;;;;;;60.38;48.73;;;;;;;20.02;100.00;100153.95;1684586;84;21543;-84
2021/09/19 09:35:40;;;;;;;56.98;46.70;;;;;;;20.17;100.00;100152.06;1665216;83;21651;-85
2021/09/19 09:38:23;;;;;;;53.95;42.33;;;;;;;20.39;100.00;100159.95;1682586;84;20991;-85
2021/09/19 09:40:52;;;;;;;55.80;41.83;;;;;;;20.60;100.00;100157.78;1706844;84;21090;-82
2021/09/19 09:43:20;;;;;;;49.27;43.13;;;;;;;20.85;100.00;100155.23;1684341;84;21168;-82
2021/09/19 09:45:51;;;;;;;58.95;47.27;;;;;;;21.02;100.00;100164.50;1687960;84;21062;-81
2021/09/19 09:48:38;;;;;;;63.00;50.70;;;;;;;21.17;100.00;100166.20;1666440;85;21078;-82
2021/09/19 09:51:23;;;;;;;61.50;48.63;;;;;;;21.30;100.00;100164.12;1676699;85;21050;-79
2021/09/19 09:54:00;;;;;;;54.53;46.20;;;;;;;21.45;100.00;100166.13;1666335;85;21138;-80
2021/09/19 09:56:27;;;;;;;56.15;47.40;;;;;;;21.61;100.00;100168.94;1680428;84;21030;-85
2021/09/19 09:58:55;;;;;;;50.35;44.88;;;;;;;21.67;100.00;100164.16;1704801;84;21101;-81
2021/09/19 10:01:24;;;;;;;66.20;54.50;;;;;;;21.67;100.00;100162.84;1706714;84;21124;-79
2021/09/19 10:03:52;;;;;;;54.77;47.25;;;;;;;21.65;100.00;100158.77;1689843;84;21039;-83
2021/09/19 10:06:19;;;;;;;58.92;49.93;;;;;;;21.67;100.00;100162.84;1692376;83;21084;-83
2021/09/19 10:08:49;;;;;;;59.42;50.73;;;;;;;21.70;100.00;100164.30;1711342;83;21200;-81
2021/09/19 10:11:17;;;;;;;60.73;51.70;;;;;;;21.80;100.00;100163.91;1689635;82;21611;-85
2021/09/19 10:13:47;;;;;;;60.20;48.98;;;;;;;21.94;100.00;100157.61;1687579;84;21014;-81
2021/09/19 10:16:17;;;;;;;51.25;45.60;;;;;;;22.04;100.00;100153.23;1700852;82;20999;-79
2021/09/19 10:18:48;;;;;;;53.85;46.95;;;;;;;22.05;100.00;100153.54;1696197;82;20972;-82
2021/09/19 10:21:22;;;;;;;54.05;45.95;;;;;;;22.00;100.00;100161.30;1708564;82;21078;-83
2021/09/19 10:23:51;;;;;;;51.83;44.38;;;;;;;21.86;100.00;100160.45;1693020;82;21050;-83
2021/09/19 10:26:23;;;;;;;48.05;42.90;;;;;;;21.77;100.00;100169.59;1708723;82;21085;-79
2021/09/19 10:28:54;;;;;;;45.43;40.25;;;;;;;21.66;100.00;100171.83;1708863;82;21034;-86
2021/09/19 10:31:25;;;;;;;53.55;44.48;;;;;;;21.66;100.00;100162.56;1683487;82;21576;-83
2021/09/19 10:34:07;;;;;;;47.30;42.38;;;;;;;21.65;100.00;100164.89;1692628;82;21037;-83
2021/09/19 10:36:52;;;;;;;49.50;42.40;;;;;;;21.56;100.00;100158.11;1710958;81;21518;-79
2021/09/19 10:39:29;;;;;;;43.73;38.67;;;;;;;21.39;100.00;100164.27;1682523;82;21102;-84
2021/09/19 10:42:28;;;;;;;42.58;37.20;;;;;;;21.23;100.00;100168.86;1703783;83;21019;-83
2021/09/19 10:44:59;;;;;;;43.00;37.00;;;;;;;21.16;100.00;100163.24;1699883;81;21054;-83
2021/09/19 10:47:34;;;;;;;41.13;36.42;;;;;;;21.10;100.00;100164.34;1708529;82;21100;-85
2021/09/19 10:50:22;;;;;;;37.83;33.10;;;;;;;21.04;100.00;100164.30;1668190;84;21572;-82
2021/09/19 10:53:03;;;;;;;34.92;31.23;;;;;;;20.97;100.00;100169.55;1656937;82;21022;-83
2021/09/19 10:55:54;;;;;;;36.00;32.13;;;;;;;20.91;100.00;100166.36;1710234;82;21089;-82
2021/09/19 10:58:25;;;;;;;37.50;33.50;;;;;;;20.90;100.00;100163.40;1709572;82;21607;-82
2021/09/19 11:01:22;;;;;;;38.40;34.30;;;;;;;20.89;100.00;100162.59;1760545;80;21493;-82
2021/09/19 11:04:03;;;;;;;38.75;34.85;;;;;;;20.98;100.00;100155.30;1733861;81;21029;-82
2021/09/19 11:06:36;;;;;;;39.53;35.45;;;;;;;21.19;100.00;100156.24;1744597;81;21003;-84
2021/09/19 11:09:25;;;;;;;38.80;34.55;;;;;;;21.45;100.00;100160.83;1734837;82;21049;-81
2021/09/19 11:12:12;;;;;;;37.65;33.98;;;;;;;21.66;100.00;100153.28;1738053;81;21014;-84
2021/09/19 11:15:07;;;;;;;33.40;29.85;;;;;;;21.90;100.00;100149.77;1741448;81;20999;-84